createdAt,value
2022-11-08T00:04:34.902Z,86.54
2022-11-08T00:09:57.558Z,86.53
2022-11-08T00:15:01.799Z,86.46
2022-11-08T00:20:06.340Z,86.36
2022-11-08T00:25:11.325Z,86.39
2022-11-08T00:30:14.475Z,86.47
2022-11-08T00:35:17.526Z,86.49
2022-11-08T00:40:20.486Z,86.53
2022-11-08T00:45:23.590Z,86.64
2022-11-08T00:50:26.694Z,86.58
2022-11-08T00:55:29.706Z,86.51
2022-11-08T01:00:32.810Z,86.50
2022-11-08T01:05:38.475Z,86.61
2022-11-08T01:10:43.995Z,86.71
2022-11-08T01:15:47.726Z,86.81
2022-11-08T01:20:51.313Z,86.76
2022-11-08T01:25:54.383Z,86.82
2022-11-08T01:30:57.495Z,86.93
2022-11-08T01:36:00.799Z,86.93
2022-11-08T01:41:05.539Z,87.07
2022-11-08T01:46:33.854Z,87.25
2022-11-08T01:51:54.672Z,87.11
2022-11-08T01:57:01.693Z,87.08
2022-11-08T02:02:05.869Z,87.15
2022-11-08T02:07:12.294Z,87.25
2022-11-08T02:12:20.565Z,87.31
2022-11-08T02:17:23.601Z,87.42
2022-11-08T02:22:39.351Z,87.33
2022-11-08T02:27:42.615Z,87.32
2022-11-08T02:32:47.386Z,87.22
2022-11-08T02:37:51.182Z,87.21
2022-11-08T02:42:54.197Z,87.21
2022-11-08T02:47:57.397Z,87.24
2022-11-08T02:53:01.013Z,87.37
2022-11-08T02:58:04.907Z,87.28
2022-11-08T03:03:08.248Z,87.22
2022-11-08T03:08:11.360Z,87.32
2022-11-08T03:13:14.466Z,87.23
2022-11-08T03:18:17.928Z,87.42
2022-11-08T03:23:21.318Z,87.65
2022-11-08T03:28:24.729Z,87.78
2022-11-08T03:33:28.225Z,87.95
2022-11-08T03:38:31.330Z,87.93
2022-11-08T03:43:34.428Z,88.00
2022-11-08T03:48:37.458Z,87.95
2022-11-08T03:53:40.548Z,87.98
2022-11-08T03:58:43.549Z,88.10
2022-11-08T04:03:46.546Z,88.08
2022-11-08T04:08:49.653Z,88.00
2022-11-08T04:14:11.500Z,87.93
2022-11-08T04:19:36.006Z,87.71
2022-11-08T04:24:39.135Z,87.70
2022-11-08T04:29:42.232Z,87.86
2022-11-08T04:34:45.329Z,87.96
2022-11-08T04:39:50.317Z,87.89
2022-11-08T04:44:53.637Z,87.86
2022-11-08T04:49:56.687Z,87.79
2022-11-08T04:54:59.715Z,87.79
2022-11-08T05:00:02.904Z,87.93
2022-11-08T05:05:07.501Z,88.08
2022-11-08T05:10:10.684Z,88.07
2022-11-08T05:15:13.754Z,88.04
2022-11-08T05:20:35.805Z,87.89
2022-11-08T05:25:40.428Z,87.86
2022-11-08T05:30:43.863Z,88.04
2022-11-08T05:35:46.971Z,88.06
2022-11-08T05:40:49.974Z,87.90
2022-11-08T05:45:53.089Z,87.91
2022-11-08T05:50:57.108Z,87.89
2022-11-08T05:56:03.140Z,88.00
2022-11-08T06:01:13.865Z,88.09
2022-11-08T06:06:20.697Z,88.14
2022-11-08T06:11:27.410Z,88.11
2022-11-08T06:16:30.343Z,88.00
2022-11-08T06:21:33.662Z,87.93
2022-11-08T06:26:36.915Z,87.90
2022-11-08T06:31:43.037Z,88.03
2022-11-08T06:36:46.666Z,88.12
2022-11-08T06:41:49.875Z,88.00
2022-11-08T06:46:56.157Z,87.93
2022-11-08T06:51:59.677Z,87.74
2022-11-08T06:57:03.085Z,87.68
2022-11-08T07:02:07.088Z,87.69
2022-11-08T07:07:10.320Z,87.75
2022-11-08T07:12:13.548Z,87.75
2022-11-08T07:17:16.842Z,87.58
2022-11-08T07:22:19.944Z,87.38
2022-11-08T07:27:23.709Z,87.26
2022-11-08T07:32:26.885Z,87.14
2022-11-08T07:37:30.427Z,87.00
2022-11-08T07:43:05.144Z,86.88
2022-11-08T07:48:11.864Z,86.64
2022-11-08T07:53:16.145Z,86.45
2022-11-08T07:58:19.578Z,86.31
2022-11-08T08:03:23.489Z,86.11
2022-11-08T08:08:27.135Z,86.01
2022-11-08T08:13:30.334Z,85.81
2022-11-08T08:18:33.575Z,85.53
2022-11-08T08:23:36.750Z,85.39
2022-11-08T08:28:39.862Z,85.37
2022-11-08T08:33:43.688Z,85.25
2022-11-08T08:38:46.786Z,85.01
2022-11-08T08:43:50.123Z,84.64
2022-11-08T08:48:54.021Z,84.38
2022-11-08T08:53:58.668Z,84.18
2022-11-08T09:04:24.845Z,83.66
2022-11-08T09:09:28.255Z,83.54
2022-11-08T09:14:31.483Z,83.36
2022-11-08T09:19:34.680Z,83.43
2022-11-08T09:24:38.596Z,83.35
2022-11-08T09:29:41.735Z,83.18
2022-11-08T09:34:45.525Z,82.91
2022-11-08T09:39:48.840Z,82.83
2022-11-08T09:45:13.045Z,82.79
2022-11-08T09:50:39.189Z,82.35
2022-11-08T09:56:06.457Z,81.91
2022-11-08T10:01:14.551Z,81.60
2022-11-08T10:06:44.028Z,81.54
2022-11-08T10:12:37.088Z,81.26
2022-11-08T10:18:11.725Z,80.89
2022-11-08T10:23:57.538Z,80.66
2022-11-08T10:29:20.104Z,80.45
2022-11-08T10:34:29.325Z,80.25
2022-11-08T10:39:45.052Z,80.08
2022-11-08T10:44:48.261Z,79.41
2022-11-08T10:49:52.490Z,78.93
2022-11-08T10:54:59.180Z,79.19
2022-11-08T11:00:23.689Z,79.04
2022-11-08T11:05:31.854Z,78.82
2022-11-08T11:10:47.788Z,78.42
2022-11-08T11:16:00.473Z,78.36
2022-11-08T11:21:15.239Z,77.69
2022-11-08T11:26:18.438Z,77.57
2022-11-08T11:31:21.547Z,77.11
2022-11-08T11:36:30.527Z,77.18
2022-11-08T11:41:49.462Z,76.93
2022-11-08T11:47:02.813Z,77.19
2022-11-08T11:52:17.627Z,77.06
2022-11-08T11:57:41.516Z,76.93
2022-11-08T12:03:15.917Z,76.42
2022-11-08T12:08:36.030Z,76.13
2022-11-08T12:14:09.361Z,75.82
2022-11-08T12:19:24.739Z,76.04
2022-11-08T12:24:39.213Z,76.11
2022-11-08T12:29:51.559Z,75.79
2022-11-08T12:35:43.424Z,75.70
2022-11-08T12:41:11.917Z,75.46
2022-11-08T12:46:20.533Z,75.60
2022-11-08T12:51:57.542Z,75.34
2022-11-08T12:57:09.226Z,75.14
2022-11-08T13:02:24.979Z,74.96
2022-11-08T13:07:56.093Z,75.42
2022-11-08T13:13:36.203Z,75.42
2022-11-08T13:18:49.725Z,75.36
2022-11-08T13:24:38.428Z,75.60
2022-11-08T13:29:38.891Z,75.61
2022-11-08T13:34:49.517Z,75.63
2022-11-08T13:40:27.254Z,75.50
2022-11-08T13:45:34.828Z,75.67
2022-11-08T13:51:19.150Z,75.93
2022-11-08T13:56:56.325Z,76.36
2022-11-08T14:01:59.772Z,76.69
2022-11-08T14:07:06.233Z,76.88
2022-11-08T14:12:20.903Z,77.25
2022-11-08T14:17:52.986Z,77.64
2022-11-08T14:23:00.554Z,77.99
2022-11-08T14:28:05.033Z,78.07
2022-11-08T14:33:21.741Z,78.36
2022-11-08T14:38:28.240Z,78.67
2022-11-08T14:43:42.870Z,78.86
2022-11-08T14:48:54.383Z,79.26
2022-11-08T14:53:57.794Z,79.59
2022-11-08T14:59:07.001Z,79.93
2022-11-08T15:04:21.188Z,80.11
2022-11-08T15:09:33.470Z,80.15
2022-11-08T15:14:55.731Z,80.43
2022-11-08T15:20:21.768Z,80.64
2022-11-08T15:25:36.023Z,80.81
2022-11-08T15:30:43.335Z,80.89
2022-11-08T15:35:47.783Z,80.90
2022-11-08T15:40:54.783Z,80.84
2022-11-08T15:46:03.075Z,80.98
2022-11-08T15:51:06.421Z,81.12
2022-11-08T15:56:12.593Z,81.25
2022-11-08T16:01:23.289Z,81.38
2022-11-08T16:06:26.618Z,81.86
2022-11-08T16:11:32.971Z,81.92
2022-11-08T16:16:37.019Z,82.07
2022-11-08T16:21:40.230Z,81.95
2022-11-08T16:26:45.811Z,81.90
2022-11-08T16:31:51.152Z,81.94
2022-11-08T16:36:54.962Z,81.86
2022-11-08T16:41:58.526Z,82.18
2022-11-08T16:47:01.798Z,82.32
2022-11-08T16:52:05.118Z,82.35
2022-11-08T16:57:28.949Z,82.48
2022-11-08T17:02:35.743Z,82.31
2022-11-08T17:07:39.138Z,82.47
2022-11-08T17:12:42.203Z,82.40
2022-11-08T17:17:46.408Z,82.35
2022-11-08T17:22:49.860Z,82.67
2022-11-08T17:27:53.266Z,82.75
2022-11-08T17:32:56.571Z,82.86
2022-11-08T17:38:00.030Z,83.00
2022-11-08T17:43:03.342Z,82.77
2022-11-08T17:48:07.022Z,83.11
2022-11-08T17:53:10.329Z,83.41
2022-11-08T17:58:13.536Z,83.67
2022-11-08T18:03:17.136Z,83.80
2022-11-08T18:08:26.514Z,83.68
2022-11-08T18:13:31.453Z,83.82
2022-11-08T18:18:34.868Z,83.84
2022-11-08T18:23:41.969Z,83.91
2022-11-08T18:28:45.487Z,84.03
2022-11-08T18:33:49.841Z,84.51
2022-11-08T18:38:53.749Z,84.65
2022-11-08T18:44:00.027Z,84.72
2022-11-08T18:49:05.387Z,84.71
2022-11-08T18:54:08.597Z,84.49
2022-11-08T18:59:11.742Z,84.72
2022-11-08T19:04:15.023Z,85.08
2022-11-08T19:09:19.460Z,85.59
2022-11-08T19:14:23.072Z,85.79
2022-11-08T19:19:26.277Z,85.93
2022-11-08T19:24:29.385Z,85.97
2022-11-08T19:29:32.596Z,85.99
2022-11-08T19:34:37.034Z,85.75
2022-11-08T19:39:40.236Z,85.47
2022-11-08T19:44:43.340Z,85.24
2022-11-08T19:49:46.449Z,85.11
2022-11-08T19:54:50.482Z,84.85
2022-11-08T19:59:53.582Z,84.74
2022-11-08T20:04:56.791Z,84.59
2022-11-08T20:10:00.334Z,84.60
2022-11-08T20:15:04.342Z,84.64
2022-11-08T20:20:08.887Z,84.48
2022-11-08T20:25:12.091Z,84.54
2022-11-08T20:30:15.503Z,84.35
2022-11-08T20:35:22.967Z,84.36
2022-11-08T20:40:26.824Z,84.40
2022-11-08T20:45:30.443Z,84.30
2022-11-08T20:50:36.527Z,84.17
2022-11-08T20:55:39.744Z,84.07
2022-11-08T21:01:02.601Z,84.11
2022-11-08T21:06:09.242Z,84.25
2022-11-08T21:11:15.807Z,84.21
2022-11-08T21:16:29.978Z,84.07
2022-11-08T21:21:34.689Z,84.09
2022-11-08T21:26:37.790Z,84.26
2022-11-08T21:31:40.999Z,84.19
2022-11-08T21:36:44.002Z,84.21
2022-11-08T21:41:47.107Z,84.16
2022-11-08T21:46:50.520Z,84.00
2022-11-08T21:51:53.727Z,83.82
2022-11-08T21:56:56.851Z,83.65
2022-11-08T22:02:00.454Z,83.60
2022-11-08T22:07:03.781Z,83.57
2022-11-08T22:12:07.287Z,83.55
2022-11-08T22:17:10.498Z,83.43
2022-11-08T22:22:14.121Z,83.36
2022-11-08T22:27:17.622Z,83.20
2022-11-08T22:32:20.631Z,83.18
2022-11-08T22:37:23.658Z,83.14
2022-11-08T22:42:26.745Z,83.18
2022-11-08T22:47:29.757Z,83.24
2022-11-08T22:52:32.751Z,83.21
2022-11-08T22:57:35.852Z,83.21
2022-11-08T23:02:38.956Z,83.27
2022-11-08T23:07:42.063Z,83.43
2022-11-08T23:13:03.707Z,83.49
2022-11-08T23:18:06.817Z,83.68
2022-11-08T23:23:29.380Z,83.68
2022-11-08T23:28:51.215Z,83.65
2022-11-08T23:33:54.324Z,83.50
2022-11-08T23:38:58.967Z,83.52
2022-11-08T23:44:20.811Z,83.60
2022-11-08T23:49:24.122Z,83.64
2022-11-08T23:54:27.227Z,83.47
2022-11-08T23:59:30.332Z,83.44
